createdAt,value
2022-10-31T00:02:38.397Z,10.62
2022-10-31T00:05:51.373Z,10.57
2022-10-31T00:08:57.214Z,10.63
2022-10-31T00:11:59.960Z,10.63
2022-10-31T00:15:02.760Z,10.77
2022-10-31T00:18:07.195Z,10.67
2022-10-31T00:21:10.381Z,10.69
2022-10-31T00:24:13.203Z,10.67
2022-10-31T00:27:16.053Z,10.68
2022-10-31T00:30:19.018Z,10.76
2022-10-31T00:33:21.954Z,10.80
2022-10-31T00:36:24.863Z,10.88
2022-10-31T00:39:27.773Z,10.83
2022-10-31T00:42:30.673Z,10.86
2022-10-31T00:45:34.729Z,10.95
2022-10-31T00:48:37.542Z,11.04
2022-10-31T00:51:40.365Z,10.96
2022-10-31T00:54:43.291Z,10.81
2022-10-31T00:57:49.222Z,10.80
2022-10-31T01:00:56.251Z,10.90
2022-10-31T01:03:59.514Z,10.98
2022-10-31T01:07:03.088Z,10.90
2022-10-31T01:10:07.659Z,10.81
2022-10-31T01:13:10.573Z,10.77
2022-10-31T01:16:16.972Z,10.70
2022-10-31T01:19:20.898Z,10.75
2022-10-31T01:22:23.724Z,10.81
2022-10-31T01:25:26.943Z,10.64
2022-10-31T01:28:30.916Z,10.61
2022-10-31T01:31:36.950Z,10.46
2022-10-31T01:34:40.449Z,10.41
2022-10-31T01:37:43.220Z,10.56
2022-10-31T01:40:46.012Z,10.56
2022-10-31T01:43:57.309Z,10.63
2022-10-31T01:47:05.454Z,10.64
2022-10-31T01:50:16.592Z,10.57
2022-10-31T01:53:24.351Z,10.58
2022-10-31T01:56:30.101Z,10.72
2022-10-31T01:59:37.366Z,10.65
2022-10-31T02:02:40.830Z,10.68
2022-10-31T02:05:45.187Z,10.71
2022-10-31T02:08:48.260Z,10.86
2022-10-31T02:11:57.480Z,10.71
2022-10-31T02:15:01.710Z,10.59
2022-10-31T02:18:06.037Z,10.50
2022-10-31T02:21:21.993Z,10.64
2022-10-31T02:24:49.457Z,10.63
2022-10-31T02:28:26.453Z,10.68
2022-10-31T02:31:55.472Z,10.55
2022-10-31T02:35:23.322Z,10.47
2022-10-31T02:38:41.425Z,10.52
2022-10-31T02:42:08.510Z,10.42
2022-10-31T02:45:36.876Z,10.49
2022-10-31T02:48:42.826Z,10.40
2022-10-31T02:51:46.588Z,10.45
2022-10-31T02:54:49.428Z,10.57
2022-10-31T02:57:58.741Z,10.44
2022-10-31T03:01:31.987Z,10.55
2022-10-31T03:05:01.199Z,10.49
2022-10-31T03:08:25.894Z,10.53
2022-10-31T03:11:44.380Z,10.63
2022-10-31T03:15:10.531Z,10.42
2022-10-31T03:18:28.113Z,10.33
2022-10-31T03:21:51.386Z,10.27
2022-10-31T03:24:57.025Z,10.35
2022-10-31T03:28:03.783Z,10.27
2022-10-31T03:31:11.227Z,10.21
2022-10-31T03:34:17.676Z,10.04
2022-10-31T03:37:23.227Z,10.02
2022-10-31T03:40:29.001Z,9.98
2022-10-31T03:43:38.203Z,10.03
2022-10-31T03:46:41.856Z,10.09
2022-10-31T03:49:45.565Z,10.16
2022-10-31T03:52:58.589Z,10.11
2022-10-31T03:56:14.198Z,10.09
2022-10-31T03:59:25.530Z,10.25
2022-10-31T04:02:33.545Z,10.34
2022-10-31T04:05:38.559Z,10.16
2022-10-31T04:08:46.867Z,10.20
2022-10-31T04:11:59.881Z,10.24
2022-10-31T04:15:23.283Z,10.21
2022-10-31T04:18:26.967Z,10.35
2022-10-31T04:21:31.013Z,10.42
2022-10-31T04:24:34.859Z,10.34
2022-10-31T04:27:37.687Z,10.30
2022-10-31T04:30:40.526Z,10.18
2022-10-31T04:33:43.750Z,10.23
2022-10-31T04:36:46.701Z,10.31
2022-10-31T04:39:52.265Z,10.27
2022-10-31T04:43:13.368Z,9.87
2022-10-31T04:46:19.410Z,9.99
2022-10-31T04:49:22.228Z,9.97
2022-10-31T04:52:25.026Z,10.08
2022-10-31T04:55:28.930Z,10.14
2022-10-31T04:58:34.417Z,10.22
2022-10-31T05:01:37.309Z,10.24
2022-10-31T05:04:40.484Z,10.16
2022-10-31T05:07:45.507Z,10.13
2022-10-31T05:10:48.527Z,10.28
2022-10-31T05:13:51.528Z,10.16
2022-10-31T05:17:14.160Z,10.03
2022-10-31T05:20:52.471Z,10.03
2022-10-31T05:24:02.479Z,10.06
2022-10-31T05:27:05.791Z,9.81
2022-10-31T05:30:10.047Z,10.07
2022-10-31T05:33:13.558Z,10.09
2022-10-31T05:36:34.690Z,9.94
2022-10-31T05:39:40.965Z,10.04
2022-10-31T05:42:52.167Z,10.06
2022-10-31T05:45:56.100Z,10.05
2022-10-31T05:49:18.599Z,9.89
2022-10-31T05:52:39.453Z,9.91
2022-10-31T05:55:52.455Z,9.91
2022-10-31T05:58:57.668Z,9.73
2022-10-31T06:02:02.911Z,9.87
2022-10-31T06:05:28.754Z,9.57
2022-10-31T06:08:31.596Z,9.41
2022-10-31T06:11:38.492Z,9.62
2022-10-31T06:14:41.245Z,9.67
2022-10-31T06:17:44.580Z,9.62
2022-10-31T06:20:59.521Z,9.70
2022-10-31T06:24:02.346Z,9.60
2022-10-31T06:27:30.962Z,9.77
2022-10-31T06:30:38.388Z,9.65
2022-10-31T06:33:44.588Z,9.65
2022-10-31T06:36:48.265Z,9.78
2022-10-31T06:39:51.912Z,9.94
2022-10-31T06:43:02.099Z,9.95
2022-10-31T06:46:07.013Z,9.99
2022-10-31T06:49:15.961Z,10.24
2022-10-31T06:52:26.551Z,10.12
2022-10-31T06:55:29.505Z,10.25
2022-10-31T06:58:32.697Z,10.33
2022-10-31T07:01:38.455Z,10.27
2022-10-31T07:04:41.579Z,10.40
2022-10-31T07:07:44.927Z,10.36
2022-10-31T07:10:54.938Z,10.26
2022-10-31T07:13:58.627Z,10.17
2022-10-31T07:17:01.419Z,10.29
2022-10-31T07:20:18.397Z,10.45
2022-10-31T07:23:21.515Z,10.52
2022-10-31T07:26:40.707Z,10.56
2022-10-31T07:29:43.706Z,10.66
2022-10-31T07:32:52.024Z,10.78
2022-10-31T07:35:55.545Z,10.60
2022-10-31T07:39:03.306Z,10.79
2022-10-31T07:42:08.255Z,10.96
2022-10-31T07:45:14.746Z,10.90
2022-10-31T07:48:52.961Z,11.05
2022-10-31T07:52:14.360Z,11.21
2022-10-31T07:55:35.987Z,11.26
2022-10-31T07:58:39.287Z,11.29
2022-10-31T08:01:42.282Z,11.17
2022-10-31T08:05:08.576Z,11.22
2022-10-31T08:08:37.480Z,11.08
2022-10-31T08:11:41.676Z,11.13
2022-10-31T08:14:45.309Z,11.31
2022-10-31T08:17:48.107Z,11.06
2022-10-31T08:20:50.893Z,11.36
2022-10-31T08:23:53.909Z,11.75
2022-10-31T08:26:59.813Z,11.92
2022-10-31T08:30:02.596Z,11.48
2022-10-31T08:33:12.491Z,11.72
2022-10-31T08:36:35.772Z,11.87
2022-10-31T08:39:48.158Z,11.91
2022-10-31T08:43:17.913Z,11.98
2022-10-31T08:46:20.808Z,11.91
2022-10-31T08:49:24.225Z,11.93
2022-10-31T08:52:51.237Z,12.05
2022-10-31T08:55:50.420Z,12.22
2022-10-31T08:58:59.956Z,12.38
2022-10-31T09:02:21.605Z,12.63
2022-10-31T09:05:27.609Z,12.65
2022-10-31T09:08:33.949Z,12.34
2022-10-31T09:11:37.989Z,12.20
2022-10-31T09:14:46.660Z,12.12
2022-10-31T09:18:02.071Z,12.04
2022-10-31T09:21:09.150Z,12.30
2022-10-31T09:24:12.169Z,12.49
2022-10-31T09:27:15.127Z,12.50
2022-10-31T09:30:20.731Z,12.31
2022-10-31T09:33:25.607Z,12.25
2022-10-31T09:36:48.389Z,12.25
2022-10-31T09:39:55.846Z,12.61
2022-10-31T09:43:12.514Z,12.55
2022-10-31T09:46:22.325Z,12.80
2022-10-31T09:49:53.184Z,12.89
2022-10-31T09:53:10.305Z,12.78
2022-10-31T09:56:17.891Z,12.65
2022-10-31T09:59:29.277Z,12.77
2022-10-31T10:02:43.191Z,12.77
2022-10-31T10:06:00.536Z,12.80
2022-10-31T10:09:16.242Z,13.06
2022-10-31T10:13:28.852Z,13.27
2022-10-31T10:16:46.895Z,13.39
2022-10-31T10:20:11.595Z,13.23
2022-10-31T10:23:58.737Z,13.50
2022-10-31T10:27:36.827Z,13.37
2022-10-31T10:30:53.218Z,13.32
2022-10-31T10:34:32.958Z,13.41
2022-10-31T10:37:41.052Z,13.16
2022-10-31T10:40:44.567Z,12.94
2022-10-31T10:43:50.911Z,13.16
2022-10-31T10:47:18.966Z,13.36
2022-10-31T10:50:27.632Z,13.15
2022-10-31T10:54:00.149Z,13.35
2022-10-31T10:57:12.858Z,13.64
2022-10-31T11:00:34.181Z,13.89
2022-10-31T11:03:37.178Z,13.81
2022-10-31T11:06:40.087Z,14.02
2022-10-31T11:09:43.060Z,13.61
2022-10-31T11:12:59.396Z,13.59
2022-10-31T11:16:10.916Z,13.65
2022-10-31T11:19:16.116Z,13.86
2022-10-31T11:22:19.149Z,13.76
2022-10-31T11:25:23.404Z,13.91
2022-10-31T11:28:27.699Z,14.14
2022-10-31T11:31:31.909Z,13.98
2022-10-31T11:34:39.458Z,13.98
2022-10-31T11:37:45.423Z,13.98
2022-10-31T11:41:04.581Z,13.89
2022-10-31T11:44:15.858Z,14.17
2022-10-31T11:47:23.404Z,14.24
2022-10-31T11:50:32.597Z,14.12
2022-10-31T11:53:36.385Z,14.38
2022-10-31T11:56:43.658Z,14.48
2022-10-31T11:59:54.625Z,14.46
2022-10-31T12:03:15.519Z,14.42
2022-10-31T12:06:34.452Z,13.90
2022-10-31T12:09:39.201Z,14.18
2022-10-31T12:12:50.924Z,14.23
2022-10-31T12:16:07.538Z,14.39
2022-10-31T12:19:29.379Z,14.55
2022-10-31T12:22:41.099Z,14.46
2022-10-31T12:25:48.583Z,14.26
2022-10-31T12:29:06.542Z,14.19
2022-10-31T12:32:39.683Z,14.16
2022-10-31T12:36:15.218Z,14.13
2022-10-31T12:39:26.934Z,14.04
2022-10-31T12:42:48.693Z,14.03
2022-10-31T12:45:56.123Z,13.63
2022-10-31T12:49:16.255Z,13.12
2022-10-31T12:52:23.195Z,12.93
2022-10-31T12:55:51.595Z,13.01
2022-10-31T12:59:02.106Z,12.73
2022-10-31T13:02:17.956Z,13.21
2022-10-31T13:05:29.035Z,13.41
2022-10-31T13:08:42.894Z,13.60
2022-10-31T13:11:50.503Z,13.91
2022-10-31T13:14:58.790Z,13.95
2022-10-31T13:18:08.433Z,13.72
2022-10-31T13:21:19.777Z,13.24
2022-10-31T13:24:29.494Z,13.32
2022-10-31T13:27:45.429Z,13.55
2022-10-31T13:30:50.139Z,13.23
2022-10-31T13:34:04.834Z,12.80
2022-10-31T13:37:18.125Z,12.75
2022-10-31T13:40:48.885Z,12.97
2022-10-31T13:44:13.116Z,12.81
2022-10-31T13:47:26.316Z,12.65
2022-10-31T13:50:32.002Z,12.56
2022-10-31T13:53:44.390Z,12.90
2022-10-31T13:56:52.259Z,13.16
2022-10-31T13:59:58.380Z,13.12
2022-10-31T14:03:01.331Z,13.04
2022-10-31T14:06:05.299Z,13.05
2022-10-31T14:09:39.428Z,13.18
2022-10-31T14:12:47.769Z,13.01
2022-10-31T14:15:57.945Z,13.05
2022-10-31T14:19:09.231Z,12.98
2022-10-31T14:22:25.040Z,13.07
2022-10-31T14:25:29.361Z,12.93
2022-10-31T14:28:34.597Z,12.94
2022-10-31T14:31:39.535Z,12.96
2022-10-31T14:34:43.246Z,12.82
2022-10-31T14:38:09.616Z,12.89
2022-10-31T14:41:34.157Z,12.89
2022-10-31T14:44:44.623Z,13.03
2022-10-31T14:47:53.607Z,12.90
2022-10-31T14:50:59.618Z,12.97
2022-10-31T14:54:03.540Z,12.93
2022-10-31T14:57:16.297Z,12.82
2022-10-31T15:00:22.150Z,12.59
2022-10-31T15:03:35.733Z,12.55
2022-10-31T15:06:54.004Z,12.51
2022-10-31T15:09:59.660Z,12.46
2022-10-31T15:13:19.566Z,12.39
2022-10-31T15:16:25.817Z,12.41
2022-10-31T15:19:31.000Z,12.38
2022-10-31T15:22:33.932Z,12.32
2022-10-31T15:25:36.865Z,12.27
2022-10-31T15:28:39.590Z,12.23
2022-10-31T15:31:52.783Z,12.25
2022-10-31T15:34:57.352Z,12.26
2022-10-31T15:38:03.020Z,12.23
2022-10-31T15:41:53.957Z,12.18
2022-10-31T15:45:17.177Z,12.10
2022-10-31T15:48:24.838Z,12.12
2022-10-31T15:51:30.806Z,12.08
2022-10-31T15:54:34.097Z,12.20
2022-10-31T15:58:01.609Z,12.22
2022-10-31T16:01:07.729Z,12.32
2022-10-31T16:04:13.691Z,12.47
2022-10-31T16:07:23.303Z,12.36
2022-10-31T16:10:28.030Z,12.34
2022-10-31T16:13:33.602Z,12.31
2022-10-31T16:16:43.736Z,12.05
2022-10-31T16:19:53.569Z,11.90
2022-10-31T16:22:58.400Z,11.80
2022-10-31T16:26:07.694Z,11.69
2022-10-31T16:29:27.114Z,11.79
2022-10-31T16:32:52.522Z,11.89
2022-10-31T16:36:09.606Z,11.90
2022-10-31T16:39:19.808Z,11.96
2022-10-31T16:42:22.734Z,11.99
2022-10-31T16:45:28.310Z,12.02
2022-10-31T16:48:31.082Z,12.04
2022-10-31T16:51:33.772Z,12.05
2022-10-31T16:54:36.638Z,11.78
2022-10-31T16:57:39.703Z,11.76
2022-10-31T17:00:42.719Z,11.84
2022-10-31T17:03:45.749Z,12.03
2022-10-31T17:06:48.538Z,12.02
2022-10-31T17:09:51.261Z,12.09
2022-10-31T17:12:55.056Z,12.07
2022-10-31T17:16:04.414Z,12.13
2022-10-31T17:19:11.681Z,12.06
2022-10-31T17:22:15.767Z,11.88
2022-10-31T17:25:22.786Z,11.79
2022-10-31T17:28:26.817Z,11.73
2022-10-31T17:31:32.220Z,11.75
2022-10-31T17:34:34.962Z,11.83
2022-10-31T17:37:37.867Z,11.88
2022-10-31T17:40:42.501Z,12.03
2022-10-31T17:43:45.298Z,12.25
2022-10-31T17:46:48.097Z,12.04
2022-10-31T17:49:53.380Z,12.14
2022-10-31T17:52:58.867Z,12.19
2022-10-31T17:56:04.525Z,12.36
2022-10-31T17:59:07.652Z,12.28
2022-10-31T18:02:11.587Z,12.29
2022-10-31T18:05:14.389Z,12.03
2022-10-31T18:08:17.481Z,11.99
2022-10-31T18:11:22.102Z,11.92
2022-10-31T18:14:24.998Z,11.82
2022-10-31T18:17:28.275Z,11.74
2022-10-31T18:20:31.015Z,11.71
2022-10-31T18:23:34.078Z,11.85
2022-10-31T18:26:37.236Z,11.93
2022-10-31T18:29:40.004Z,12.01
2022-10-31T18:32:42.873Z,12.05
2022-10-31T18:35:46.362Z,11.94
2022-10-31T18:38:49.410Z,11.79
2022-10-31T18:41:54.955Z,11.79
2022-10-31T18:45:00.201Z,11.85
2022-10-31T18:48:13.714Z,11.88
2022-10-31T18:51:18.688Z,11.92
2022-10-31T18:54:21.558Z,11.93
2022-10-31T18:57:24.469Z,11.91
2022-10-31T19:00:27.362Z,11.90
2022-10-31T19:03:30.255Z,12.06
2022-10-31T19:06:33.975Z,11.85
2022-10-31T19:09:36.982Z,11.83
2022-10-31T19:12:39.926Z,11.92
2022-10-31T19:15:43.603Z,12.06
2022-10-31T19:18:46.952Z,11.91
2022-10-31T19:21:49.989Z,11.63
2022-10-31T19:24:53.304Z,11.83
2022-10-31T19:27:56.388Z,11.83
2022-10-31T19:30:59.614Z,11.82
2022-10-31T19:34:05.804Z,11.91
2022-10-31T19:37:08.944Z,11.76
2022-10-31T19:40:12.526Z,11.87
2022-10-31T19:43:15.670Z,11.59
2022-10-31T19:46:27.719Z,11.64
2022-10-31T19:49:36.616Z,11.65
2022-10-31T19:52:39.510Z,11.53
2022-10-31T19:55:43.303Z,11.53
2022-10-31T19:58:46.729Z,11.45
2022-10-31T20:01:49.628Z,11.38
2022-10-31T20:04:52.487Z,11.37
2022-10-31T20:07:56.793Z,11.39
2022-10-31T20:11:04.520Z,11.40
2022-10-31T20:14:09.095Z,11.34
2022-10-31T20:17:12.045Z,11.32
2022-10-31T20:20:15.082Z,11.34
2022-10-31T20:23:18.680Z,11.42
2022-10-31T20:26:21.633Z,11.38
2022-10-31T20:29:24.461Z,11.43
2022-10-31T20:32:27.612Z,11.21
2022-10-31T20:35:30.655Z,11.18
2022-10-31T20:38:34.458Z,11.26
2022-10-31T20:41:39.419Z,11.35
2022-10-31T20:44:42.964Z,11.42
2022-10-31T20:47:45.809Z,11.45
2022-10-31T20:50:48.843Z,11.38
2022-10-31T20:53:53.254Z,11.31
2022-10-31T20:56:56.127Z,11.33
2022-10-31T20:59:58.999Z,11.33
2022-10-31T21:03:02.079Z,11.25
2022-10-31T21:06:07.778Z,11.33
2022-10-31T21:09:10.787Z,11.39
2022-10-31T21:12:13.550Z,11.27
2022-10-31T21:15:16.721Z,11.28
2022-10-31T21:18:19.833Z,10.90
2022-10-31T21:21:34.085Z,10.91
2022-10-31T21:24:37.127Z,10.79
2022-10-31T21:27:40.028Z,10.72
2022-10-31T21:30:45.067Z,10.70
2022-10-31T21:33:47.842Z,10.67
2022-10-31T21:36:50.615Z,10.66
2022-10-31T21:39:53.768Z,10.63
2022-10-31T21:42:57.367Z,10.67
2022-10-31T21:46:05.441Z,10.66
2022-10-31T21:49:10.677Z,10.75
2022-10-31T21:52:13.461Z,10.69
2022-10-31T21:55:16.343Z,10.70
2022-10-31T21:58:19.088Z,10.82
2022-10-31T22:01:26.451Z,10.87
2022-10-31T22:04:29.364Z,11.04
2022-10-31T22:07:32.509Z,11.02
2022-10-31T22:10:35.334Z,11.02
2022-10-31T22:13:38.137Z,11.19
2022-10-31T22:16:41.558Z,11.19
2022-10-31T22:19:44.419Z,11.12
2022-10-31T22:22:48.476Z,10.93
2022-10-31T22:25:51.228Z,10.95
2022-10-31T22:28:56.188Z,11.00
2022-10-31T22:32:00.642Z,10.98
2022-10-31T22:35:05.063Z,10.86
2022-10-31T22:38:08.114Z,10.92
2022-10-31T22:41:13.132Z,11.00
2022-10-31T22:44:15.836Z,11.05
2022-10-31T22:47:18.558Z,11.08
2022-10-31T22:50:21.881Z,10.94
2022-10-31T22:53:24.679Z,10.99
2022-10-31T22:56:32.099Z,11.03
2022-10-31T22:59:38.242Z,11.10
2022-10-31T23:02:40.933Z,11.03
2022-10-31T23:05:44.025Z,11.07
2022-10-31T23:08:47.808Z,10.99
2022-10-31T23:11:50.532Z,10.88
2022-10-31T23:14:53.229Z,10.83
2022-10-31T23:17:57.660Z,10.90
2022-10-31T23:21:01.629Z,11.00
2022-10-31T23:24:04.788Z,11.08
2022-10-31T23:27:15.259Z,11.15
2022-10-31T23:30:18.028Z,11.13
2022-10-31T23:33:20.969Z,11.16
2022-10-31T23:36:23.838Z,11.05
2022-10-31T23:39:26.804Z,10.96
2022-10-31T23:42:29.952Z,10.99
2022-10-31T23:45:33.145Z,11.00
2022-10-31T23:48:35.881Z,11.06
2022-10-31T23:51:39.467Z,10.92
2022-10-31T23:54:42.691Z,10.85
2022-10-31T23:57:45.509Z,10.69
